Time;durP1;ratioP1;P1;durP2;ratioP2;P2;SDS_P1;SDS_P2;PMS_P1;PMS_P2;Temp;Humidity;BMP_temperature;BMP_pressure;BME280_temperature;BME280_humidity;BME280_pressure;Samples;Min_cycle;Max_cycle;Signal;HPM_P1;HPM_P2
2021/12/04 00:00:08;;;;;;;2.67;1.80;;;2.90;99.90;;;;;;4997441;28;20179;-81
2021/12/04 00:02:34;;;;;;;4.38;2.28;;;2.90;99.90;;;;;;4986946;28;20203;-82
2021/12/04 00:05:01;;;;;;;3.40;2.43;;;2.90;99.90;;;;;;4994887;28;20699;-82
2021/12/04 00:07:29;;;;;;;2.85;1.95;;;2.90;99.90;;;;;;5021184;28;20269;-81
2021/12/04 00:09:59;;;;;;;4.90;2.42;;;2.90;99.90;;;;;;5003116;28;22729;-82
2021/12/04 00:12:24;;;;;;;4.28;1.90;;;2.90;99.90;;;;;;4985848;28;20240;-84
2021/12/04 00:14:52;;;;;;;2.20;1.77;;;2.90;99.90;;;;;;5001150;28;20663;-83
2021/12/04 00:17:18;;;;;;;5.70;2.70;;;2.90;99.90;;;;;;4987051;28;20557;-83
2021/12/04 00:19:43;;;;;;;4.40;2.30;;;2.90;99.90;;;;;;5002199;28;20182;-85
2021/12/04 00:22:09;;;;;;;4.70;2.10;;;2.90;99.90;;;;;;5003087;28;20261;-85
2021/12/04 00:24:35;;;;;;;3.35;2.20;;;2.90;99.90;;;;;;4984132;28;20721;-83
2021/12/04 00:27:01;;;;;;;2.13;1.93;;;2.80;99.90;;;;;;4986379;28;20183;-84
2021/12/04 00:29:27;;;;;;;4.40;2.30;;;2.90;99.90;;;;;;4992012;28;20163;-82
2021/12/04 00:32:00;;;;;;;4.60;2.60;;;2.90;99.90;;;;;;5001096;28;20505;-82
2021/12/04 00:34:28;;;;;;;4.13;2.55;;;2.90;99.90;;;;;;5003200;28;20166;-82
2021/12/04 00:37:34;;;;;;;2.85;1.80;;;2.80;99.90;;;;;;4987178;28;20204;-81
2021/12/04 00:50:56;;;;;;;7.97;3.58;;;2.90;99.90;;;;;;5003838;28;20210;-83
2021/12/04 00:53:22;;;;;;;3.80;2.10;;;5.50;99.90;;;;;;5003307;28;20253;-84
2021/12/04 00:55:48;;;;;;;1.67;1.33;;;2.80;99.90;;;;;;5002355;28;20193;-84
2021/12/04 00:58:13;;;;;;;2.00;1.60;;;2.80;99.90;;;;;;5004747;28;20259;-84
2021/12/04 01:00:40;;;;;;;2.17;1.60;;;2.90;99.90;;;;;;4988153;28;21113;-85
2021/12/04 01:03:08;;;;;;;3.42;1.90;;;2.90;99.90;;;;;;4999828;28;20195;-82
2021/12/04 01:05:33;;;;;;;3.25;1.73;;;2.90;99.90;;;;;;4990572;28;20252;-82
2021/12/04 01:07:59;;;;;;;2.80;2.10;;;2.90;99.90;;;;;;5002052;28;20718;-84
2021/12/04 01:10:24;;;;;;;4.27;2.20;;;2.90;99.90;;;;;;5002174;28;20205;-84
2021/12/04 01:12:50;;;;;;;2.17;2.00;;;2.90;99.90;;;;;;4983338;28;20209;-84
2021/12/04 01:15:16;;;;;;;2.70;2.07;;;2.90;99.90;;;;;;5000525;28;20186;-84
2021/12/04 01:17:42;;;;;;;5.82;2.47;;;2.90;99.90;;;;;;5001379;28;20206;-82
2021/12/04 01:20:08;;;;;;;2.63;2.43;;;2.90;99.90;;;;;;4994041;28;20179;-83
2021/12/04 01:22:34;;;;;;;4.90;2.70;;;3.00;99.90;;;;;;4992959;28;20217;-84
2021/12/04 01:25:01;;;;;;;3.30;2.70;;;3.00;99.90;;;;;;4988073;28;20174;-83
2021/12/04 01:27:26;;;;;;;8.40;2.42;;;3.00;99.90;;;;;;5016286;28;20179;-81
2021/12/04 01:29:52;;;;;;;4.83;2.83;;;3.00;99.90;;;;;;4984869;28;20187;-78
2021/12/04 01:32:18;;;;;;;4.07;3.03;;;3.00;99.90;;;;;;4989587;28;20210;-81
2021/12/04 01:34:43;;;;;;;6.00;3.03;;;3.00;99.90;;;;;;5004338;28;20202;-83
2021/12/04 01:37:09;;;;;;;4.63;2.93;;;;;;;;;;4993722;28;20202;-84
2021/12/04 01:39:35;;;;;;;4.03;3.03;;;3.10;99.90;;;;;;5007269;28;20182;-83
2021/12/04 01:42:00;;;;;;;6.57;4.10;;;3.10;99.90;;;;;;5001975;28;21091;-86
2021/12/04 01:44:26;;;;;;;6.10;2.00;;;3.20;99.90;;;;;;5004016;28;20531;-82
2021/12/04 01:46:56;;;;;;;8.00;4.37;;;3.20;99.90;;;;;;4990962;28;20492;-83
2021/12/04 01:49:23;;;;;;;4.60;3.60;;;3.20;99.90;;;;;;4982432;28;20456;-84
2021/12/04 01:51:49;;;;;;;4.50;3.50;;;3.30;99.90;;;;;;4992217;28;20718;-86
2021/12/04 01:54:14;;;;;;;5.17;3.70;;;3.40;99.90;;;;;;4982872;28;20214;-84
2021/12/04 01:56:41;;;;;;;5.33;3.50;;;3.50;99.90;;;;;;4985487;28;20710;-84
2021/12/04 01:59:06;;;;;;;4.60;3.17;;;3.40;99.90;;;;;;4988099;28;20191;-83
2021/12/04 02:01:33;;;;;;;5.13;3.30;;;3.50;99.90;;;;;;4998931;28;20214;-82
2021/12/04 02:03:59;;;;;;;3.65;3.03;;;3.50;99.90;;;;;;4985718;28;20186;-84
2021/12/04 02:06:24;;;;;;;6.60;4.00;;;3.40;99.90;;;;;;5000941;28;20186;-83
2021/12/04 02:08:51;;;;;;;7.03;4.30;;;3.20;99.90;;;;;;4987831;28;20182;-83
2021/12/04 02:11:16;;;;;;;4.90;3.70;;;3.10;99.90;;;;;;4990078;28;20195;-83
2021/12/04 02:13:42;;;;;;;5.43;4.17;;;2.90;99.90;;;;;;4999891;28;20561;-82
2021/12/04 02:16:16;;;;;;;4.87;3.97;;;2.70;99.90;;;;;;4984748;28;20175;-82
2021/12/04 02:18:41;;;;;;;5.30;3.45;;;2.60;99.90;;;;;;4985514;28;20201;-84
2021/12/04 02:21:07;;;;;;;3.87;3.07;;;2.40;99.90;;;;;;4981073;28;20752;-85
2021/12/04 02:23:33;;;;;;;5.43;3.97;;;2.40;99.90;;;;;;5003311;28;20301;-83
2021/12/04 02:25:59;;;;;;;4.85;4.05;;;2.40;99.90;;;;;;5001103;28;20179;-85
2021/12/04 02:28:25;;;;;;;9.10;4.07;;;2.30;99.90;;;;;;5004609;28;20236;-82
2021/12/04 02:30:51;;;;;;;7.50;4.43;;;2.30;99.90;;;;;;5001018;28;20205;-84
2021/12/04 02:33:17;;;;;;;7.07;4.50;;;2.20;99.90;;;;;;4988760;28;20219;-83
2021/12/04 02:35:49;;;;;;;5.65;4.07;;;2.20;99.90;;;;;;5000552;28;20179;-84
2021/12/04 02:38:17;;;;;;;5.63;3.10;;;2.30;99.90;;;;;;4986061;28;20202;-85
2021/12/04 02:40:45;;;;;;;6.82;4.90;;;2.30;99.90;;;;;;5002482;28;20176;-84
2021/12/04 02:43:12;;;;;;;6.75;5.03;;;2.30;99.90;;;;;;5001427;28;20789;-84
2021/12/04 02:45:37;;;;;;;5.95;3.90;;;2.40;99.90;;;;;;5004285;28;20182;-83
2021/12/04 02:48:03;;;;;;;8.50;4.20;;;2.50;99.90;;;;;;5003871;28;20182;-83
2021/12/04 02:50:29;;;;;;;8.30;3.72;;;2.60;99.90;;;;;;4987453;28;20445;-84
2021/12/04 02:52:55;;;;;;;8.70;4.27;;;2.60;99.90;;;;;;4983976;28;20230;-84
2021/12/04 02:55:20;;;;;;;7.50;4.20;;;2.60;99.90;;;;;;4983435;28;20194;-81
2021/12/04 02:57:46;;;;;;;5.30;3.90;;;2.60;99.90;;;;;;5000895;28;20229;-82
2021/12/04 03:00:18;;;;;;;14.30;4.20;;;2.70;99.90;;;;;;5002671;28;20253;-80
2021/12/04 03:02:44;;;;;;;6.32;4.75;;;2.60;99.90;;;;;;4985794;28;20453;-79
2021/12/04 03:05:11;;;;;;;14.18;4.75;;;2.70;99.90;;;;;;4999209;28;20175;-83
2021/12/04 03:07:37;;;;;;;6.57;3.95;;;2.70;99.90;;;;;;4999653;28;20372;-80
2021/12/04 03:10:06;;;;;;;5.55;3.92;;;2.70;99.90;;;;;;5000277;28;20193;-81
2021/12/04 03:12:32;;;;;;;9.52;5.18;;;2.70;99.90;;;;;;5001502;28;20200;-82
2021/12/04 03:14:58;;;;;;;7.20;4.60;;;2.80;99.90;;;;;;4988507;28;22084;-80
2021/12/04 03:17:25;;;;;;;10.37;5.40;;;2.90;99.90;;;;;;5003676;28;20241;-80
2021/12/04 03:19:52;;;;;;;8.38;4.93;;;3.00;99.90;;;;;;5002984;28;20667;-81
2021/12/04 03:22:19;;;;;;;7.13;4.88;;;3.00;99.90;;;;;;4989793;28;20272;-82
2021/12/04 03:24:46;;;;;;;8.07;5.88;;;3.00;99.90;;;;;;5002542;28;20189;-83
2021/12/04 03:27:13;;;;;;;9.95;6.22;;;3.00;99.90;;;;;;4992079;28;20187;-82
2021/12/04 03:29:43;;;;;;;13.23;5.18;;;2.90;99.90;;;;;;5004384;28;20213;-83
2021/12/04 03:40:36;;;;;;;6.80;3.78;;;2.70;99.90;;;;;;4981015;28;20191;-82
2021/12/04 03:43:05;;;;;;;9.73;4.82;;;2.60;99.90;;;;;;5004949;28;20564;-80
2021/12/04 03:45:33;;;;;;;9.55;5.75;;;2.60;99.90;;;;;;5007360;28;20199;-83
2021/12/04 03:48:06;;;;;;;11.25;5.55;;;2.60;99.90;;;;;;4989355;28;20182;-81
2021/12/04 03:50:32;;;;;;;10.32;5.60;;;2.60;99.90;;;;;;5004125;28;20179;-83
2021/12/04 03:52:58;;;;;;;9.52;5.03;;;2.70;99.90;;;;;;5000712;28;20206;-82
2021/12/04 03:55:25;;;;;;;10.50;5.20;;;2.60;99.90;;;;;;5002930;28;20183;-83
2021/12/04 03:57:51;;;;;;;9.25;5.45;;;2.60;99.90;;;;;;5002990;28;20674;-81
2021/12/04 04:00:18;;;;;;;7.80;4.78;;;2.60;99.90;;;;;;4985746;28;20175;-82
2021/12/04 04:02:43;;;;;;;12.82;6.90;;;2.60;99.90;;;;;;4985502;28;20198;-81
2021/12/04 04:05:09;;;;;;;8.30;4.73;;;2.60;99.90;;;;;;5000728;28;20183;-82
2021/12/04 04:07:35;;;;;;;6.10;3.70;;;2.60;99.90;;;;;;4997744;28;20209;-83
2021/12/04 04:10:00;;;;;;;7.53;5.00;;;2.70;99.90;;;;;;5001672;28;20182;-81
2021/12/04 04:12:26;;;;;;;10.83;5.63;;;2.70;99.90;;;;;;4986890;28;20210;-82
2021/12/04 04:14:52;;;;;;;8.90;6.00;;;2.70;99.90;;;;;;5002445;28;20187;-84
2021/12/04 04:17:17;;;;;;;9.87;5.30;;;2.80;99.90;;;;;;5003636;28;20211;-81
2021/12/04 04:19:43;;;;;;;6.23;4.17;;;2.80;99.90;;;;;;5002783;28;20205;-82
2021/12/04 04:22:08;;;;;;;7.73;5.20;;;2.80;99.90;;;;;;4982253;28;20194;-81
2021/12/04 04:24:34;;;;;;;11.33;6.70;;;2.80;99.90;;;;;;5002220;28;21076;-82
2021/12/04 04:27:00;;;;;;;7.20;3.80;;;2.90;99.90;;;;;;5000679;28;20190;-82
2021/12/04 04:29:26;;;;;;;11.93;5.47;;;2.80;99.90;;;;;;4989943;28;21781;-81
2021/12/04 04:31:54;;;;;;;11.68;5.88;;;2.80;99.90;;;;;;4994180;28;20245;-82
2021/12/04 04:34:28;;;;;;;9.18;5.78;;;2.80;99.90;;;;;;4990451;28;20671;-82
2021/12/04 04:37:19;;;;;;;9.63;5.78;;;2.80;99.90;;;;;;5005848;28;20198;-83
2021/12/04 05:01:28;;;;;;;6.80;4.30;;;2.80;99.90;;;;;;5003760;28;20206;-83
2021/12/04 05:14:38;;;;;;;10.35;5.65;;;2.80;99.90;;;;;;5004858;28;20207;-84
2021/12/04 05:17:11;;;;;;;10.35;4.40;;;2.80;99.90;;;;;;4988036;28;20184;-84
2021/12/04 05:19:40;;;;;;;8.18;5.47;;;2.80;99.90;;;;;;4987573;28;20222;-84
2021/12/04 05:22:10;;;;;;;11.32;5.80;;;2.80;99.90;;;;;;5001225;28;20195;-83
2021/12/04 05:24:36;;;;;;;6.97;3.85;;;2.90;99.90;;;;;;4987293;28;20646;-82
2021/12/04 05:27:02;;;;;;;6.33;4.33;;;2.90;99.90;;;;;;4984244;28;20189;-83
2021/12/04 05:29:28;;;;;;;8.13;4.50;;;2.90;99.90;;;;;;5003683;28;20190;-82
2021/12/04 05:31:53;;;;;;;5.60;3.40;;;2.90;99.90;;;;;;4992433;28;20473;-83
2021/12/04 05:34:19;;;;;;;9.20;5.50;;;2.90;99.90;;;;;;4995107;28;20222;-82
2021/12/04 05:36:44;;;;;;;8.77;5.57;;;2.90;99.90;;;;;;5006342;28;20209;-83
2021/12/04 05:39:10;;;;;;;10.53;6.33;;;2.90;99.90;;;;;;5005878;28;20630;-82
2021/12/04 05:41:36;;;;;;;10.47;4.77;;;2.90;99.90;;;;;;5001450;28;20202;-82
2021/12/04 05:44:06;;;;;;;8.30;5.73;;;2.90;99.90;;;;;;4987034;28;20175;-83
2021/12/04 05:46:39;;;;;;;8.90;5.53;;;3.00;99.90;;;;;;5002752;28;20584;-81
2021/12/04 05:49:56;;;;;;;6.22;5.07;;;3.10;99.90;;;;;;5001928;28;20245;-84
2021/12/04 05:52:06;;;;;;;8.80;5.88;;;3.10;99.90;;;;;;4992248;28;20213;-83
2021/12/04 05:57:08;;;;;;;7.75;5.55;;;3.30;99.90;;;;;;5001501;28;20206;-83
2021/12/04 05:59:34;;;;;;;8.68;6.00;;;3.50;99.90;;;;;;4999043;28;20179;-84
2021/12/04 06:02:00;;;;;;;9.88;6.07;;;3.30;99.90;;;;;;4982842;28;20195;-85
2021/12/04 06:04:27;;;;;;;11.27;6.07;;;3.30;99.90;;;;;;4983526;28;20177;-84
2021/12/04 06:06:52;;;;;;;9.48;6.03;;;3.30;99.90;;;;;;5002147;28;20182;-85
2021/12/04 06:09:18;;;;;;;9.53;5.77;;;3.30;99.90;;;;;;5000056;28;20179;-84
2021/12/04 06:11:45;;;;;;;9.05;6.18;;;3.50;99.90;;;;;;5007809;23;20725;-83
2021/12/04 06:14:11;;;;;;;10.07;6.47;;;3.60;99.90;;;;;;4982810;28;20209;-83
2021/12/04 06:16:36;;;;;;;10.17;6.40;;;3.70;99.90;;;;;;4965028;28;20206;-82
2021/12/04 06:19:12;;;;;;;10.03;6.20;;;3.70;99.90;;;;;;4981310;28;20218;-82
2021/12/04 06:24:22;;;;;;;11.27;6.65;;;3.90;99.90;;;;;;4984421;28;20207;-82
2021/12/04 06:26:48;;;;;;;13.23;7.43;;;3.70;99.90;;;;;;4961943;28;20716;-80
2021/12/04 06:29:13;;;;;;;11.40;7.10;;;3.60;99.90;;;;;;4984337;28;20214;-82
2021/12/04 06:31:39;;;;;;;10.50;7.20;;;3.70;99.90;;;;;;4981664;28;20191;-84
2021/12/04 06:34:05;;;;;;;18.87;9.83;;;;;;;;;;4981983;28;20682;-83
2021/12/04 06:36:31;;;;;;;13.07;7.80;;;3.70;99.90;;;;;;4983321;28;20833;-83
2021/12/04 06:38:56;;;;;;;12.70;8.83;;;3.70;99.90;;;;;;4985217;28;20441;-83
2021/12/04 06:41:23;;;;;;;18.60;10.27;;;3.70;99.90;;;;;;4967023;28;20298;-82
2021/12/04 06:43:50;;;;;;;15.23;7.63;;;3.80;99.90;;;;;;4985235;28;20517;-82
2021/12/04 06:46:18;;;;;;;12.43;7.30;;;3.70;99.90;;;;;;4965848;28;20214;-83
2021/12/04 06:48:58;;;;;;;12.45;7.35;;;3.70;99.90;;;;;;4981508;28;20191;-82
2021/12/04 06:51:31;;;;;;;11.85;8.00;;;3.70;99.90;;;;;;4970884;28;20206;-83
2021/12/04 06:54:01;;;;;;;16.48;8.90;;;3.70;99.90;;;;;;4958421;28;20190;-83
2021/12/04 06:56:34;;;;;;;21.92;12.00;;;;;;;;;;4980529;28;20298;-83
2021/12/04 06:59:06;;;;;;;10.15;6.82;;;3.70;99.90;;;;;;4984252;28;20210;-84
2021/12/04 07:01:33;;;;;;;25.73;13.27;;;3.60;99.90;;;;;;4981669;28;20270;-83
2021/12/04 07:03:59;;;;;;;16.17;8.40;;;3.70;99.90;;;;;;4985538;28;20175;-82
2021/12/04 07:06:24;;;;;;;26.53;15.70;;;3.80;99.90;;;;;;4975905;28;20234;-83
2021/12/04 07:08:50;;;;;;;19.03;10.37;;;3.80;99.90;;;;;;4984518;28;22205;-82
2021/12/04 07:11:16;;;;;;;22.27;12.50;;;3.80;99.90;;;;;;4986195;28;20726;-82
2021/12/04 07:13:41;;;;;;;16.20;10.43;;;3.80;99.90;;;;;;4981982;28;20190;-81
2021/12/04 07:16:08;;;;;;;15.43;9.67;;;3.80;99.90;;;;;;4987159;28;20261;-81
2021/12/04 07:18:35;;;;;;;21.15;11.55;;;3.80;99.90;;;;;;4971048;28;20226;-83
2021/12/04 07:21:01;;;;;;;24.92;13.30;;;3.80;99.90;;;;;;4975093;28;20175;-82
2021/12/04 07:23:27;;;;;;;12.20;7.90;;;3.80;99.90;;;;;;4971945;28;20191;-81
2021/12/04 07:25:53;;;;;;;12.17;8.10;;;3.90;99.90;;;;;;4988338;28;20231;-82
2021/12/04 07:28:18;;;;;;;10.90;6.67;;;4.00;99.90;;;;;;4987723;28;20945;-83
2021/12/04 07:30:44;;;;;;;13.40;7.20;;;4.00;99.90;;;;;;4983859;28;20179;-81
2021/12/04 07:33:10;;;;;;;11.50;6.27;;;4.00;99.90;;;;;;4983651;28;20186;-82
2021/12/04 07:35:36;;;;;;;7.90;6.43;;;4.10;99.90;;;;;;4988596;28;20163;-79
2021/12/04 07:38:01;;;;;;;12.40;6.93;;;4.10;99.90;;;;;;5016136;28;20231;-79
2021/12/04 07:40:27;;;;;;;8.70;6.33;;;4.10;99.90;;;;;;4996127;28;20283;-79
2021/12/04 07:42:53;;;;;;;11.25;7.88;;;4.20;99.90;;;;;;4992482;28;20195;-82
2021/12/04 07:45:19;;;;;;;11.60;7.57;;;4.20;99.90;;;;;;4987099;28;20186;-80
2021/12/04 07:47:46;;;;;;;10.30;6.77;;;4.30;99.90;;;;;;4968628;28;20222;-82
2021/12/04 07:50:14;;;;;;;10.60;6.47;;;4.30;99.90;;;;;;4982138;28;20180;-82
2021/12/04 07:52:40;;;;;;;10.70;6.65;;;4.40;99.90;;;;;;4967158;28;20206;-82
2021/12/04 07:55:08;;;;;;;13.23;7.28;;;4.50;99.90;;;;;;4981561;28;20179;-83
2021/12/04 07:57:34;;;;;;;20.45;11.52;;;4.50;99.90;;;;;;4982311;28;20230;-82
2021/12/04 08:00:00;;;;;;;11.00;7.40;;;4.50;99.90;;;;;;4985705;28;20179;-84
2021/12/04 08:02:26;;;;;;;9.23;5.47;;;4.60;99.90;;;;;;4968017;28;20538;-84
2021/12/04 08:04:52;;;;;;;9.30;6.37;;;4.50;99.90;;;;;;4984580;28;20262;-84
2021/12/04 08:07:18;;;;;;;11.63;6.33;;;4.40;99.90;;;;;;4986373;28;20450;-82
2021/12/04 08:09:46;;;;;;;7.63;4.97;;;4.50;99.90;;;;;;4975955;28;20209;-83
2021/12/04 08:12:13;;;;;;;11.43;6.43;;;4.30;99.90;;;;;;4969192;28;20203;-83
2021/12/04 08:14:39;;;;;;;24.40;12.15;;;4.50;99.90;;;;;;4987383;28;20196;-84
2021/12/04 08:17:05;;;;;;;8.80;6.13;;;4.50;99.90;;;;;;4987105;28;20203;-82
2021/12/04 08:19:30;;;;;;;24.80;15.07;;;4.50;99.90;;;;;;4978376;28;20977;-84
2021/12/04 08:21:56;;;;;;;8.87;4.63;;;4.40;99.90;;;;;;4975693;28;20433;-83
2021/12/04 08:24:21;;;;;;;8.23;5.70;;;4.50;99.90;;;;;;4970407;28;20208;-82
2021/12/04 08:26:47;;;;;;;7.23;4.23;;;4.50;99.90;;;;;;4967822;28;20272;-83
2021/12/04 08:29:14;;;;;;;8.77;5.53;;;4.40;99.90;;;;;;4973398;28;20191;-83
2021/12/04 08:31:40;;;;;;;4.85;3.67;;;4.50;99.90;;;;;;4968572;28;20203;-82
2021/12/04 08:34:06;;;;;;;7.75;5.35;;;4.60;99.90;;;;;;4982679;28;20914;-82
2021/12/04 08:36:32;;;;;;;6.80;5.20;;;;;;;;;;4975409;28;20207;-82
2021/12/04 08:39:00;;;;;;;7.32;4.57;;;4.80;99.90;;;;;;4986639;28;20179;-77
2021/12/04 08:41:26;;;;;;;6.57;4.75;;;4.90;99.90;;;;;;4986702;28;20214;-83
2021/12/04 08:43:54;;;;;;;6.80;4.97;;;5.00;99.90;;;;;;4987055;28;20175;-82
2021/12/04 08:46:20;;;;;;;9.15;5.20;;;5.10;99.90;;;;;;4974144;28;20469;-83
2021/12/04 08:48:48;;;;;;;8.82;5.85;;;5.20;99.90;;;;;;5011976;23;20294;-83
2021/12/04 08:51:13;;;;;;;7.43;4.07;;;5.40;99.90;;;;;;4978720;28;20204;-83
2021/12/04 08:53:41;;;;;;;11.83;5.20;;;5.40;99.90;;;;;;4965309;28;20186;-83
2021/12/04 08:56:07;;;;;;;7.03;5.10;;;5.40;99.90;;;;;;4962664;28;20715;-82
2021/12/04 08:58:35;;;;;;;8.73;5.23;;;5.60;99.90;;;;;;4984618;28;20294;-83
2021/12/04 09:01:05;;;;;;;7.90;4.63;;;5.50;99.90;;;;;;4982009;28;20677;-83
2021/12/04 09:03:35;;;;;;;7.05;5.30;;;5.60;99.90;;;;;;4984806;28;20179;-83
2021/12/04 09:06:03;;;;;;;5.22;3.42;;;5.70;99.90;;;;;;4981896;28;21126;-82
2021/12/04 09:08:30;;;;;;;5.10;3.45;;;5.50;99.90;;;;;;4979079;28;20191;-83
2021/12/04 09:10:58;;;;;;;5.85;3.90;;;5.30;99.90;;;;;;4979357;28;20223;-83
2021/12/04 09:13:25;;;;;;;3.13;1.95;;;5.20;99.90;;;;;;4982645;28;20230;-83
2021/12/04 09:15:51;;;;;;;3.60;2.85;;;5.10;99.90;;;;;;4967839;28;20179;-83
2021/12/04 09:18:17;;;;;;;6.82;4.40;;;5.00;99.90;;;;;;4981674;28;20215;-83
2021/12/04 09:20:43;;;;;;;4.40;3.30;;;5.00;99.90;;;;;;4984042;28;21150;-82
2021/12/04 09:23:15;;;;;;;4.07;2.80;;;5.10;99.90;;;;;;4978929;28;20805;-83
2021/12/04 09:25:45;;;;;;;2.53;2.22;;;5.10;99.90;;;;;;4979862;28;20207;-83
2021/12/04 09:28:19;;;;;;;4.10;2.90;;;5.20;99.90;;;;;;4977673;28;20179;-81
2021/12/04 10:11:22;;;;;;;2.60;2.40;;;6.30;99.90;;;;;;4978536;28;20183;-82
2021/12/04 10:14:16;;;;;;;7.13;4.25;;;6.30;99.90;;;;;;4941398;28;20190;-80
2021/12/04 10:22:38;;;;;;;7.05;4.50;;;6.50;99.90;;;;;;4936824;29;20215;-83
2021/12/04 10:33:58;;;;;;;4.30;3.75;;;6.90;99.90;;;;;;4977619;28;20532;-80
2021/12/04 10:36:33;;;;;;;4.80;3.58;;;7.00;99.90;;;;;;4976920;28;20192;-80
2021/12/04 10:38:59;;;;;;;5.05;3.88;;;7.20;99.90;;;;;;4978243;28;20191;-80
2021/12/04 10:42:07;;;;;;;2.55;2.10;;;7.00;99.90;;;;;;4966319;28;20213;-80
2021/12/04 10:44:40;;;;;;;3.75;2.30;;;7.00;99.90;;;;;;4966904;28;20281;-81
2021/12/04 10:47:26;;;;;;;4.50;3.15;;;7.10;99.90;;;;;;4980591;28;20728;-80
2021/12/04 10:52:59;;;;;;;4.65;3.20;;;7.30;99.90;;;;;;4981166;28;20199;-81
2021/12/04 11:01:50;;;;;;;3.17;2.70;;;7.10;99.90;;;;;;4982571;28;20203;-81
2021/12/04 11:04:23;;;;;;;4.63;3.20;;;7.10;99.90;;;;;;4979684;28;20191;-80
2021/12/04 11:07:17;;;;;;;2.60;2.20;;;7.10;99.90;;;;;;4971395;28;20202;-81
2021/12/04 11:35:00;;;;;;;10.98;6.45;;;7.30;99.90;;;;;;4984606;28;20183;-81
2021/12/04 11:40:53;;;;;;;7.45;2.60;;;7.40;99.90;;;;;;4984338;28;20190;-80
2021/12/04 11:43:21;;;;;;;3.83;2.80;;;7.40;99.90;;;;;;4982390;28;20216;-82
2021/12/04 11:48:33;;;;;;;3.83;2.03;;;7.40;99.90;;;;;;4979725;28;20190;-83
2021/12/04 11:51:00;;;;;;;7.43;4.85;;;7.30;99.90;;;;;;4981220;28;20246;-82
2021/12/04 11:53:27;;;;;;;3.30;2.83;;;7.20;99.90;;;;;;4979347;28;20203;-83
2021/12/04 11:55:53;;;;;;;1.70;1.60;;;7.30;99.90;;;;;;4982770;28;20261;-83
2021/12/04 11:58:26;;;;;;;6.28;3.35;;;7.30;99.90;;;;;;4964432;28;20246;-81
2021/12/04 12:01:04;;;;;;;3.53;2.70;;;7.40;99.90;;;;;;4980145;28;20267;-82
2021/12/04 12:03:32;;;;;;;3.88;3.45;;;7.40;99.90;;;;;;4982172;28;20183;-83
2021/12/04 12:05:58;;;;;;;5.78;2.90;;;7.60;99.90;;;;;;4968007;28;20186;-82
2021/12/04 12:08:30;;;;;;;5.75;2.97;;;7.60;99.90;;;;;;4981376;28;20187;-82
2021/12/04 12:11:05;;;;;;;2.10;1.83;;;7.80;99.90;;;;;;4992492;23;20226;-90
2021/12/04 12:13:34;;;;;;;5.40;2.50;;;8.00;99.90;;;;;;5012106;28;20285;-89
2021/12/04 12:16:05;;;;;;;2.83;2.42;;;8.10;99.90;;;;;;5011696;28;20815;-89
2021/12/04 12:18:42;;;;;;;3.03;2.55;;;8.20;99.90;;;;;;5013147;28;20213;-90
2021/12/04 12:21:10;;;;;;;4.78;2.00;;;8.20;99.90;;;;;;4992004;28;20179;-90
2021/12/04 12:26:52;;;;;;;5.10;2.78;;;8.20;99.90;;;;;;4991196;28;20206;-90
2021/12/04 12:32:35;;;;;;;9.93;6.80;;;8.60;99.90;;;;;;5012129;28;20253;-90
2021/12/04 12:37:48;;;;;;;2.55;1.58;;;8.60;99.90;;;;;;4991375;28;20215;-90
2021/12/04 12:40:16;;;;;;;1.77;1.63;;;8.60;99.90;;;;;;4991051;28;20203;-90
2021/12/04 12:42:42;;;;;;;2.50;1.63;;;;;;;;;;4974655;28;20183;-89
2021/12/04 12:45:32;;;;;;;1.92;1.63;;;8.60;99.90;;;;;;4992302;28;20187;-90
2021/12/04 12:48:05;;;;;;;2.17;1.90;;;8.60;99.90;;;;;;4978862;28;20219;-89
2021/12/04 12:50:46;;;;;;;1.77;1.20;;;8.60;99.90;;;;;;4969885;28;20845;-89
2021/12/04 12:53:17;;;;;;;5.03;2.75;;;8.40;99.90;;;;;;4988712;28;20190;-89
2021/12/04 12:55:45;;;;;;;2.40;1.40;;;8.40;99.90;;;;;;4988470;28;20270;-89
2021/12/04 12:58:24;;;;;;;2.15;1.30;;;8.30;99.90;;;;;;4986584;28;20691;-89
2021/12/04 13:12:08;;;;;;;2.40;2.17;;;8.30;99.90;;;;;;4987299;28;21289;-90
2021/12/04 13:14:47;;;;;;;1.73;1.48;;;8.30;99.90;;;;;;4989053;28;20570;-89
2021/12/04 13:17:23;;;;;;;1.90;1.27;;;8.20;99.90;;;;;;4985657;28;20655;-88
2021/12/04 13:19:51;;;;;;;9.32;2.50;;;8.30;99.90;;;;;;4988339;28;20290;-90
2021/12/04 13:22:26;;;;;;;4.07;2.20;;;8.30;99.90;;;;;;4985390;28;20191;-89
2021/12/04 13:24:56;;;;;;;2.22;2.03;;;8.70;99.90;;;;;;4993107;28;20193;-88
2021/12/04 13:29:53;;;;;;;14.35;6.53;;;8.30;99.90;;;;;;4993340;28;20242;-88
2021/12/04 13:32:29;;;;;;;75.88;26.73;;;8.30;99.90;;;;;;4989802;28;20506;-88
2021/12/04 13:35:21;;;;;;;20.05;9.68;;;8.30;99.90;;;;;;4980767;28;20187;-88
2021/12/04 13:37:47;;;;;;;16.45;8.40;;;;;;;;;;4981082;28;20322;-88
2021/12/04 13:40:17;;;;;;;5.82;3.75;;;8.30;99.90;;;;;;4968701;28;20198;-89
2021/12/04 13:42:44;;;;;;;3.60;2.42;;;8.30;99.90;;;;;;4969093;28;20194;-89
2021/12/04 13:45:14;;;;;;;7.10;4.30;;;8.30;99.90;;;;;;4974729;28;20275;-89
2021/12/04 13:47:41;;;;;;;1.40;1.27;;;8.20;99.90;;;;;;4985563;28;20660;-89
2021/12/04 13:53:16;;;;;;;25.52;12.32;;;8.70;99.90;;;;;;4987875;28;20187;-89
2021/12/04 13:55:51;;;;;;;4.00;2.47;;;8.20;99.90;;;;;;4988241;28;20210;-89
2021/12/04 13:58:17;;;;;;;5.05;2.42;;;;;;;;;;4990531;28;20292;-89
2021/12/04 14:00:44;;;;;;;4.70;2.50;;;;;;;;;;5010946;28;20199;-90
2021/12/04 14:03:10;;;;;;;4.50;3.20;;;;;;;;;;4995016;28;21020;-90
2021/12/04 14:05:36;;;;;;;2.22;1.33;;;;;;;;;;4980951;28;20783;-89
2021/12/04 14:08:04;;;;;;;2.03;1.83;;;8.40;99.90;;;;;;4990545;28;20671;-89
2021/12/04 14:10:33;;;;;;;3.30;1.90;;;8.40;99.90;;;;;;4987522;28;20460;-89
2021/12/04 14:13:03;;;;;;;1.17;0.90;;;8.40;99.90;;;;;;4986447;28;20623;-88
2021/12/04 14:15:29;;;;;;;1.23;1.13;;;;;;;;;;4989602;28;20238;-89
2021/12/04 14:18:01;;;;;;;1.73;1.60;;;8.40;99.90;;;;;;4984779;28;20297;-90
2021/12/04 14:20:28;;;;;;;1.30;1.20;;;8.50;99.90;;;;;;4971804;28;20512;-89
2021/12/04 14:22:55;;;;;;;0.95;0.90;;;8.50;99.90;;;;;;4988124;28;20187;-89
2021/12/04 14:25:23;;;;;;;1.33;1.15;;;8.50;99.90;;;;;;4989804;28;20206;-88
2021/12/04 14:27:49;;;;;;;1.42;1.25;;;8.50;99.90;;;;;;4988005;28;20591;-89
2021/12/04 14:30:20;;;;;;;2.63;1.05;;;8.50;99.90;;;;;;4969979;28;20616;-89
2021/12/04 14:32:53;;;;;;;2.13;1.40;;;;;;;;;;4986898;28;20682;-89
2021/12/04 14:35:22;;;;;;;1.77;1.10;;;8.50;99.90;;;;;;4980044;28;20183;-89
2021/12/04 14:37:51;;;;;;;1.08;1.02;;;8.50;99.90;;;;;;4984538;28;20210;-90
2021/12/04 14:40:30;;;;;;;2.53;1.73;;;8.50;99.90;;;;;;4976941;28;20199;-89
2021/12/04 14:42:56;;;;;;;1.63;1.40;;;;;;;;;;4987136;28;20186;-89
2021/12/04 14:45:25;;;;;;;1.80;1.40;;;8.50;99.90;;;;;;4971104;28;20187;-89
2021/12/04 14:48:02;;;;;;;2.45;1.08;;;8.50;99.90;;;;;;4983606;28;20183;-91
2021/12/04 14:50:28;;;;;;;2.20;1.42;;;;;;;;;;4997012;28;20207;-89
2021/12/04 14:53:00;;;;;;;3.10;2.25;;;8.50;99.90;;;;;;5013800;23;20238;-84
2021/12/04 14:55:32;;;;;;;3.42;1.85;;;8.50;99.90;;;;;;4992237;28;20675;-84
2021/12/04 14:57:58;;;;;;;2.63;2.42;;;8.60;99.90;;;;;;4991722;28;20217;-82
2021/12/04 15:00:28;;;;;;;5.25;4.75;;;8.60;99.90;;;;;;5009505;28;20256;-84
2021/12/04 15:03:01;;;;;;;1.40;1.23;;;8.60;99.90;;;;;;4993796;28;20272;-85
2021/12/04 15:05:42;;;;;;;4.30;3.75;;;8.70;99.90;;;;;;4975958;28;20184;-82
2021/12/04 15:08:12;;;;;;;3.70;2.65;;;8.60;99.90;;;;;;4978987;28;20176;-82
2021/12/04 15:10:39;;;;;;;4.50;3.25;;;8.70;99.90;;;;;;4962632;28;20608;-81
2021/12/04 15:13:06;;;;;;;1.50;1.42;;;8.70;99.90;;;;;;4982546;28;20286;-82
2021/12/04 15:15:35;;;;;;;1.65;1.40;;;8.80;99.90;;;;;;4985727;28;20187;-82
2021/12/04 15:18:08;;;;;;;2.00;1.90;;;8.80;99.90;;;;;;4960788;28;20214;-81
2021/12/04 15:20:35;;;;;;;3.10;2.65;;;8.80;99.90;;;;;;4986793;28;20183;-80
2021/12/04 15:23:06;;;;;;;2.42;2.25;;;8.80;99.90;;;;;;4992450;28;20728;-83
2021/12/04 15:25:35;;;;;;;1.50;1.40;;;8.80;99.90;;;;;;4982657;28;20245;-82
2021/12/04 15:28:13;;;;;;;8.75;1.70;;;8.80;99.90;;;;;;4980010;28;20194;-83
2021/12/04 15:30:43;;;;;;;3.92;1.10;;;8.80;99.90;;;;;;4976239;28;20440;-82
2021/12/04 15:33:39;;;;;;;1.60;1.50;;;8.80;99.90;;;;;;4977802;28;20231;-80
2021/12/04 15:36:09;;;;;;;0.68;0.68;;;8.90;99.90;;;;;;4954519;28;20198;-82
2021/12/04 15:38:48;;;;;;;3.83;3.15;;;8.90;99.90;;;;;;4956566;28;20203;-81
2021/12/04 15:44:03;;;;;;;9.90;5.68;;;8.90;99.90;;;;;;4974357;28;20283;-83
2021/12/04 15:46:48;;;;;;;3.88;2.90;;;9.00;99.90;;;;;;4959359;28;20210;-82
2021/12/04 15:54:56;;;;;;;5.05;3.90;;;9.00;99.90;;;;;;4973278;28;20256;-82
2021/12/04 15:57:23;;;;;;;2.53;2.15;;;9.00;99.90;;;;;;4991670;28;20265;-82
2021/12/04 15:59:52;;;;;;;3.75;2.03;;;9.00;99.90;;;;;;4954712;28;20184;-82
2021/12/04 16:02:20;;;;;;;1.73;1.00;;;8.90;99.90;;;;;;4979002;28;20199;-82
2021/12/04 16:04:48;;;;;;;1.60;1.30;;;8.90;99.90;;;;;;4981870;28;20180;-82
2021/12/04 16:07:24;;;;;;;0.80;0.55;;;9.00;99.90;;;;;;4967168;28;20770;-82
2021/12/04 16:09:49;;;;;;;0.95;0.95;;;9.00;99.90;;;;;;4980515;28;20190;-81
2021/12/04 16:12:15;;;;;;;1.50;1.30;;;9.00;99.90;;;;;;4972804;28;20261;-81